createdAt,value
2022-12-12T00:00:00.020Z,0.79
2022-12-12T00:04:51.661Z,1.09
2022-12-12T00:09:43.621Z,0.80
2022-12-12T00:14:35.163Z,1.19
2022-12-12T00:19:27.001Z,1.02
2022-12-12T00:24:18.561Z,1.40
2022-12-12T00:29:11.224Z,0.62
2022-12-12T00:34:02.810Z,1.32
2022-12-12T00:38:55.285Z,1.45
2022-12-12T00:43:46.927Z,1.11
2022-12-12T00:48:38.551Z,1.30
2022-12-12T00:53:30.475Z,0.94
2022-12-12T00:58:22.299Z,1.08
2022-12-12T01:03:13.975Z,1.09
2022-12-12T01:08:05.616Z,1.08
2022-12-12T01:12:57.329Z,0.71
2022-12-12T01:17:48.872Z,1.08
2022-12-12T01:22:40.441Z,-0.03
2022-12-12T01:27:32.318Z,1.12
2022-12-12T01:32:23.859Z,1.23
2022-12-12T01:37:15.418Z,1.14
2022-12-12T01:42:15.329Z,0.57
2022-12-12T01:47:06.881Z,1.03
2022-12-12T01:52:08.390Z,0.26
2022-12-12T01:57:05.132Z,0.37
2022-12-12T02:01:57.038Z,-1.04
2022-12-12T02:06:51.788Z,0.82
2022-12-12T02:11:48.121Z,0.72
2022-12-12T02:17:13.619Z,0.82
2022-12-12T02:22:15.236Z,0.48
2022-12-12T02:27:06.699Z,0.76
2022-12-12T02:31:58.629Z,0.75
2022-12-12T02:37:21.137Z,0.64
2022-12-12T02:42:15.654Z,0.64
2022-12-12T02:47:19.419Z,0.53
2022-12-12T02:52:11.883Z,0.48
2022-12-12T02:57:04.916Z,0.40
2022-12-12T03:02:08.312Z,0.27
2022-12-12T03:07:18.040Z,0.35
2022-12-12T03:12:27.776Z,0.32
2022-12-12T03:17:26.298Z,0.40
2022-12-12T03:22:46.316Z,0.36
2022-12-12T03:27:45.305Z,-0.30
2022-12-12T03:32:54.330Z,-0.26
2022-12-12T03:37:50.929Z,-0.01
2022-12-12T03:42:54.293Z,-0.57
2022-12-12T03:47:51.464Z,-0.26
2022-12-12T03:52:50.080Z,0.03
2022-12-12T03:58:05.598Z,-0.23
2022-12-12T04:03:15.701Z,-0.32
2022-12-12T04:08:11.718Z,-0.37
2022-12-12T04:13:10.590Z,-0.06
2022-12-12T04:18:18.918Z,-0.05
2022-12-12T04:23:26.700Z,-0.14
2022-12-12T04:28:18.595Z,-0.21
2022-12-12T04:33:15.633Z,-0.43
2022-12-12T04:38:15.461Z,-0.15
2022-12-12T04:43:19.130Z,-0.52
2022-12-12T04:48:16.489Z,-0.36
2022-12-12T04:53:18.179Z,-0.77
2022-12-12T04:58:11.219Z,-2.14
2022-12-12T05:03:17.798Z,-0.46
2022-12-12T05:08:15.792Z,-0.82
2022-12-12T05:13:17.262Z,-0.64
2022-12-12T05:18:11.234Z,-1.80
2022-12-12T05:23:02.805Z,-0.73
2022-12-12T05:27:54.377Z,-0.91
2022-12-12T05:32:45.982Z,-0.71
2022-12-12T05:37:37.829Z,-1.57
2022-12-12T05:42:29.419Z,-1.05
2022-12-12T05:47:21.080Z,-1.06
2022-12-12T05:52:12.671Z,-1.69
2022-12-12T05:57:04.218Z,-1.05
2022-12-12T06:01:55.777Z,-1.22
2022-12-12T06:06:47.355Z,-0.85
2022-12-12T06:11:40.338Z,-0.90
2022-12-12T06:16:31.858Z,-0.97
2022-12-12T06:21:23.865Z,-0.84
2022-12-12T06:26:18.177Z,-0.96
2022-12-12T06:31:12.154Z,-1.32
2022-12-12T06:36:26.213Z,-1.12
2022-12-12T06:41:18.651Z,-1.05
2022-12-12T06:46:16.807Z,-1.02
2022-12-12T06:51:15.580Z,-1.46
2022-12-12T06:56:16.117Z,-1.34
2022-12-12T07:01:08.051Z,-1.46
2022-12-12T07:06:00.831Z,-1.66
2022-12-12T07:10:52.434Z,-1.02
2022-12-12T07:15:46.417Z,-1.09
2022-12-12T07:20:40.409Z,-1.07
2022-12-12T07:25:31.941Z,-1.57
2022-12-12T07:30:23.509Z,-1.42
2022-12-12T07:35:15.490Z,-1.24
2022-12-12T07:40:07.549Z,-1.77
2022-12-12T07:44:59.238Z,-1.23
2022-12-12T07:49:50.763Z,-0.99
2022-12-12T07:54:42.367Z,-1.37
2022-12-12T07:59:34.016Z,-1.19
2022-12-12T08:04:25.675Z,-0.78
2022-12-12T08:09:17.810Z,-1.10
2022-12-12T08:14:13.162Z,-0.82
2022-12-12T08:19:05.243Z,-0.77
2022-12-12T08:23:58.599Z,-0.67
2022-12-12T08:28:50.994Z,-0.72
2022-12-12T08:33:42.795Z,-0.38
2022-12-12T08:38:34.370Z,-0.07
2022-12-12T08:43:26.161Z,0.82
2022-12-12T08:48:18.009Z,1.16
2022-12-12T08:53:09.635Z,0.92
2022-12-12T08:58:01.314Z,0.53
2022-12-12T09:02:52.986Z,0.95
2022-12-12T09:07:44.681Z,0.94
2022-12-12T09:12:41.437Z,0.80
2022-12-12T09:17:33.533Z,1.50
2022-12-12T09:22:25.098Z,1.59
2022-12-12T09:27:16.714Z,1.85
2022-12-12T09:32:08.865Z,1.62
2022-12-12T09:37:01.069Z,1.29
2022-12-12T09:41:52.723Z,1.25
2022-12-12T09:46:47.703Z,1.05
2022-12-12T09:51:41.839Z,0.77
2022-12-12T09:56:41.579Z,0.19
2022-12-12T10:02:10.499Z,0.86
2022-12-12T10:07:11.321Z,0.77
2022-12-12T10:12:08.351Z,0.48
2022-12-12T10:17:03.759Z,0.39
2022-12-12T10:22:02.203Z,1.02
2022-12-12T10:26:54.496Z,0.83
2022-12-12T10:32:08.326Z,0.51
2022-12-12T10:37:21.659Z,1.02
2022-12-12T10:42:19.277Z,1.12
2022-12-12T10:47:12.825Z,0.32
2022-12-12T10:52:18.165Z,0.89
2022-12-12T10:57:19.906Z,1.00
2022-12-12T11:02:39.583Z,1.19
2022-12-12T11:07:36.720Z,0.82
2022-12-12T11:12:35.332Z,0.50
2022-12-12T11:17:33.740Z,1.27
2022-12-12T11:22:27.240Z,1.19
2022-12-12T11:27:22.734Z,1.32
2022-12-12T11:32:17.473Z,1.15
2022-12-12T11:37:15.958Z,1.02
2022-12-12T11:42:13.653Z,1.42
2022-12-12T11:47:30.144Z,1.34
2022-12-12T11:52:26.106Z,1.01
2022-12-12T11:57:26.721Z,1.08
2022-12-12T12:02:40.727Z,1.78
2022-12-12T12:07:54.362Z,1.82
2022-12-12T12:12:51.645Z,1.82
2022-12-12T12:17:45.874Z,2.12
2022-12-12T12:22:46.532Z,2.07
2022-12-12T12:27:59.264Z,2.24
2022-12-12T12:33:35.546Z,2.38
2022-12-12T12:38:55.431Z,2.33
2022-12-12T12:44:05.746Z,2.34
2022-12-12T12:49:10.425Z,2.33
2022-12-12T12:54:25.931Z,2.37
2022-12-12T12:59:22.817Z,2.07
2022-12-12T13:04:21.762Z,1.82
2022-12-12T13:09:46.920Z,2.12
2022-12-12T13:14:56.519Z,0.83
2022-12-12T13:19:53.370Z,1.85
2022-12-12T13:24:56.349Z,1.85
2022-12-12T13:30:00.585Z,1.79
2022-12-12T13:34:58.435Z,1.70
2022-12-12T13:40:02.087Z,1.72
2022-12-12T13:44:53.627Z,1.65
2022-12-12T13:49:55.709Z,0.89
2022-12-12T13:54:47.690Z,1.63
2022-12-12T13:59:57.628Z,1.56
2022-12-12T14:05:13.114Z,1.30
2022-12-12T14:10:26.272Z,1.66
2022-12-12T14:15:31.283Z,1.55
2022-12-12T14:20:36.093Z,1.46
2022-12-12T14:25:36.943Z,1.45
2022-12-12T14:30:41.069Z,1.17
2022-12-12T14:36:13.567Z,1.34
2022-12-12T14:41:12.428Z,1.29
2022-12-12T14:46:04.361Z,0.43
2022-12-12T14:51:29.682Z,1.09
2022-12-12T14:56:32.486Z,0.98
2022-12-12T15:01:43.479Z,0.71
2022-12-12T15:06:40.766Z,0.77
2022-12-12T15:11:32.439Z,0.72
2022-12-12T15:16:48.565Z,0.03
2022-12-12T15:21:42.427Z,0.53
2022-12-12T15:26:34.962Z,0.22
2022-12-12T15:31:26.677Z,0.03
2022-12-12T15:36:28.360Z,0.31
2022-12-12T15:41:21.090Z,0.28
2022-12-12T15:46:15.252Z,0.17
2022-12-12T15:51:07.355Z,-0.11
2022-12-12T15:56:01.907Z,0.06
2022-12-12T16:01:03.079Z,-0.07
2022-12-12T16:06:19.611Z,-0.16
2022-12-12T16:11:45.701Z,-0.21
2022-12-12T16:16:45.380Z,-0.27
2022-12-12T16:21:42.127Z,-1.31
2022-12-12T16:26:33.700Z,-0.78
2022-12-12T16:31:26.128Z,-0.34
2022-12-12T16:36:17.705Z,-0.49
2022-12-12T16:41:17.716Z,-0.17
2022-12-12T16:46:19.583Z,-1.07
2022-12-12T16:51:15.919Z,-0.24
2022-12-12T16:56:08.001Z,-0.33
2022-12-12T17:01:01.586Z,-0.43
2022-12-12T17:05:53.362Z,-0.87
2022-12-12T17:10:46.896Z,-0.38
2022-12-12T17:15:38.513Z,-1.29
2022-12-12T17:20:37.462Z,-0.39
2022-12-12T17:25:29.756Z,-0.49
2022-12-12T17:30:22.115Z,-0.53
2022-12-12T17:35:13.905Z,-0.91
2022-12-12T17:40:08.163Z,-0.59
2022-12-12T17:44:59.858Z,-1.70
2022-12-12T17:49:52.117Z,-1.24
2022-12-12T17:54:43.884Z,-0.76
2022-12-12T17:59:55.444Z,-0.82
2022-12-12T18:04:47.061Z,-1.20
2022-12-12T18:09:38.666Z,-0.90
2022-12-12T18:14:30.563Z,-1.14
2022-12-12T18:19:25.245Z,-1.02
2022-12-12T18:24:18.076Z,-3.50
2022-12-12T18:29:12.185Z,-1.04
2022-12-12T18:34:04.486Z,-1.38
2022-12-12T18:38:57.198Z,-1.15
2022-12-12T18:43:48.728Z,-1.18
2022-12-12T18:48:42.610Z,-1.22
2022-12-12T18:53:34.746Z,-1.60
2022-12-12T18:58:26.548Z,-1.33
2022-12-12T19:03:18.098Z,-1.43
2022-12-12T19:08:10.849Z,-1.51
2022-12-12T19:13:03.226Z,-1.52
2022-12-12T19:17:56.126Z,-1.33
2022-12-12T19:22:47.703Z,-1.78
2022-12-12T19:27:39.547Z,-2.03
2022-12-12T19:32:31.216Z,-1.50
2022-12-12T19:37:22.871Z,-1.49
2022-12-12T19:42:14.893Z,-2.32
2022-12-12T19:47:07.297Z,-1.96
2022-12-12T19:51:58.879Z,-1.55
2022-12-12T19:56:50.916Z,-1.93
2022-12-12T20:01:43.178Z,-1.92
2022-12-12T20:06:46.794Z,-1.56
2022-12-12T20:11:38.795Z,-1.96
2022-12-12T20:16:30.629Z,-2.12
2022-12-12T20:21:59.160Z,-1.74
2022-12-12T20:26:37.470Z,-1.88
2022-12-12T20:31:32.235Z,-1.84
2022-12-12T20:36:35.333Z,-1.87
2022-12-12T20:41:34.075Z,-1.86
2022-12-12T20:46:31.838Z,-2.45
2022-12-12T20:51:54.152Z,-2.51
2022-12-12T20:56:46.001Z,-2.00
2022-12-12T21:01:38.196Z,-2.87
2022-12-12T21:06:33.962Z,-2.10
2022-12-12T21:11:25.547Z,-2.14
2022-12-12T21:16:19.812Z,-2.63
2022-12-12T21:21:12.037Z,-2.14
2022-12-12T21:26:09.361Z,-2.16
2022-12-12T21:31:00.989Z,-2.23
2022-12-12T21:35:55.750Z,-2.48
2022-12-12T21:40:47.305Z,-2.31
2022-12-12T21:45:39.374Z,-3.00
2022-12-12T21:50:31.973Z,-2.35
2022-12-12T21:55:23.534Z,-2.36
2022-12-12T22:00:15.294Z,-2.39
2022-12-12T22:05:07.578Z,-2.45
2022-12-12T22:10:10.351Z,-2.41
2022-12-12T22:15:03.317Z,-2.43
2022-12-12T22:19:57.322Z,-3.00
2022-12-12T22:24:50.436Z,-3.19
2022-12-12T22:29:41.946Z,-2.48
2022-12-12T22:34:33.543Z,-2.50
2022-12-12T22:39:27.301Z,-2.68
2022-12-12T22:44:21.649Z,-2.55
2022-12-12T22:49:15.268Z,-3.09
2022-12-12T22:54:06.960Z,-2.58
2022-12-12T22:58:58.655Z,-2.61
2022-12-12T23:03:51.802Z,-3.13
2022-12-12T23:08:44.238Z,-3.32
2022-12-12T23:13:37.743Z,-2.78
2022-12-12T23:18:29.355Z,-2.70
2022-12-12T23:23:20.974Z,-3.20
2022-12-12T23:28:14.081Z,-2.84
2022-12-12T23:33:05.894Z,-3.43
2022-12-12T23:37:57.412Z,-2.85
2022-12-12T23:42:48.969Z,-2.86
2022-12-12T23:47:40.957Z,-3.04
2022-12-12T23:52:32.513Z,-3.44
2022-12-12T23:57:23.997Z,-3.40
